createdAt,value
2019-04-27T00:02:18.143Z,100573.14
2019-04-27T00:07:37.902Z,100574.89
2019-04-27T00:12:42.888Z,100582.70
2019-04-27T00:18:03.650Z,100576.17
2019-04-27T00:23:08.734Z,100571.77
2019-04-27T00:28:12.861Z,100568.72
2019-04-27T00:33:16.344Z,100564.47
2019-04-27T00:38:27.503Z,100560.27
2019-04-27T00:43:32.752Z,100558.08
2019-04-27T00:48:36.224Z,100551.64
2019-04-27T00:53:39.643Z,100548.66
2019-04-27T00:58:50.441Z,100546.94
2019-04-27T01:03:55.513Z,100537.54
2019-04-27T01:08:58.951Z,100524.08
2019-04-27T01:14:03.890Z,100515.40
2019-04-27T01:19:08.481Z,100510.94
2019-04-27T01:24:12.686Z,100496.66
2019-04-27T01:29:20.747Z,100494.03
2019-04-27T01:34:24.166Z,100485.74
2019-04-27T01:39:28.940Z,100476.58
2019-04-27T01:44:32.620Z,100465.84
2019-04-27T01:49:36.032Z,100460.70
2019-04-27T01:54:41.076Z,100470.32
2019-04-27T01:59:44.596Z,100473.78
2019-04-27T02:05:06.200Z,100466.78
2019-04-27T02:10:11.622Z,100477.62
2019-04-27T02:15:15.966Z,100476.31
2019-04-27T02:20:19.827Z,100477.64
2019-04-27T02:25:23.437Z,100472.92
2019-04-27T02:30:34.489Z,100466.03
2019-04-27T02:35:39.072Z,100457.83
2019-04-27T02:40:49.974Z,100453.90
2019-04-27T02:45:53.400Z,100453.21
2019-04-27T02:56:13.920Z,100448.56
2019-04-27T03:01:19.875Z,100442.12
2019-04-27T03:06:23.063Z,100443.47
2019-04-27T03:11:30.471Z,100442.65
2019-04-27T03:16:46.693Z,100437.48
2019-04-27T03:21:59.215Z,100428.82
2019-04-27T03:27:03.903Z,100430.13
2019-04-27T03:32:12.389Z,100430.21
2019-04-27T03:37:12.565Z,100427.14
2019-04-27T03:42:16.909Z,100422.86
2019-04-27T03:47:20.375Z,100419.42
2019-04-27T03:52:41.536Z,100417.70
2019-04-27T03:58:02.934Z,100410.69
2019-04-27T04:03:06.421Z,100414.77
2019-04-27T04:08:10.781Z,100411.30
2019-04-27T04:13:22.648Z,100411.75
2019-04-27T04:18:26.781Z,100408.28
2019-04-27T04:23:30.236Z,100405.61
2019-04-27T04:28:33.574Z,100404.36
2019-04-27T04:33:36.981Z,100400.94
2019-04-27T04:38:40.398Z,100404.88
2019-04-27T04:43:51.111Z,100402.76
2019-04-27T04:48:54.505Z,100396.67
2019-04-27T04:53:59.838Z,100400.18
2019-04-27T04:59:03.068Z,100395.04
2019-04-27T05:04:06.484Z,100391.12
2019-04-27T05:09:09.901Z,100389.77
2019-04-27T05:14:13.322Z,100390.59
2019-04-27T05:19:18.741Z,100384.08
2019-04-27T05:24:21.854Z,100388.35
2019-04-27T05:29:25.280Z,100386.56
2019-04-27T05:34:29.403Z,100382.21
2019-04-27T05:39:32.946Z,100382.00
2019-04-27T05:44:56.315Z,100374.12
2019-04-27T05:50:01.416Z,100364.02
2019-04-27T05:55:05.190Z,100354.31
2019-04-27T06:00:09.501Z,100350.27
2019-04-27T06:05:13.370Z,100350.97
2019-04-27T06:10:16.850Z,100357.72
2019-04-27T06:15:20.289Z,100358.91
2019-04-27T06:20:23.695Z,100349.92
2019-04-27T06:25:30.349Z,100337.45
2019-04-27T06:30:32.244Z,100338.92
2019-04-27T06:35:35.670Z,100332.52
2019-04-27T06:40:39.264Z,100334.83
2019-04-27T06:45:43.263Z,100333.62
2019-04-27T06:50:46.640Z,100334.03
2019-04-27T06:55:50.149Z,100332.00
2019-04-27T07:00:53.752Z,100326.88
2019-04-27T07:05:58.848Z,100318.95
2019-04-27T07:11:02.375Z,100319.05
2019-04-27T07:16:05.801Z,100316.91
2019-04-27T07:21:16.883Z,100309.81
2019-04-27T07:26:14.607Z,100307.63
2019-04-27T07:31:19.310Z,100304.16
2019-04-27T07:36:23.028Z,100305.77
2019-04-27T07:41:26.441Z,100301.70
2019-04-27T07:46:31.702Z,100309.73
2019-04-27T07:51:35.377Z,100311.63
2019-04-27T07:56:39.112Z,100302.16
2019-04-27T08:01:42.488Z,100297.17
2019-04-27T08:06:45.975Z,100297.30
2019-04-27T08:11:51.382Z,100292.52
2019-04-27T08:16:54.739Z,100286.75
2019-04-27T08:21:59.543Z,100280.69
2019-04-27T08:27:09.346Z,100282.92
2019-04-27T08:32:30.746Z,100290.72
2019-04-27T08:37:34.379Z,100287.23
2019-04-27T08:42:39.167Z,100288.83
2019-04-27T08:47:42.713Z,100285.05
2019-04-27T08:52:46.134Z,100290.70
2019-04-27T08:57:49.702Z,100283.81
2019-04-27T09:02:53.172Z,100287.14
2019-04-27T09:07:59.709Z,100290.16
2019-04-27T09:13:08.891Z,100297.34
2019-04-27T09:18:14.087Z,100298.08
2019-04-27T09:23:18.814Z,100294.81
2019-04-27T09:28:22.368Z,100299.98
2019-04-27T09:33:25.797Z,100291.85
2019-04-27T09:38:29.806Z,100292.44
2019-04-27T09:43:33.331Z,100289.31
2019-04-27T09:48:36.763Z,100284.63
2019-04-27T09:53:40.178Z,100274.80
2019-04-27T09:58:43.789Z,100278.06
2019-04-27T10:03:47.217Z,100274.53
2019-04-27T10:08:50.704Z,100272.82
2019-04-27T10:13:55.636Z,100269.10
2019-04-27T10:18:59.136Z,100262.03
2019-04-27T10:24:03.475Z,100262.94
2019-04-27T10:29:06.977Z,100263.68
2019-04-27T10:34:10.427Z,100264.02
2019-04-27T10:39:13.908Z,100263.73
2019-04-27T10:44:17.264Z,100256.33
2019-04-27T10:49:20.697Z,100255.21
2019-04-27T10:54:24.120Z,100252.73
2019-04-27T10:59:27.725Z,100242.50
2019-04-27T11:04:50.899Z,100242.30
2019-04-27T11:09:54.455Z,100236.16
2019-04-27T11:14:57.867Z,100236.47
2019-04-27T11:20:02.725Z,100236.16
2019-04-27T11:25:08.226Z,100224.80
2019-04-27T11:30:15.653Z,100225.66
2019-04-27T11:35:21.030Z,100233.53
2019-04-27T11:40:24.965Z,100224.44
2019-04-27T11:45:28.617Z,100229.66
2019-04-27T11:50:31.990Z,100227.48
2019-04-27T11:55:35.397Z,100227.69
2019-04-27T12:00:38.819Z,100220.25
2019-04-27T12:05:42.230Z,100215.90
2019-04-27T12:10:48.250Z,100217.23
2019-04-27T12:15:51.883Z,100211.39
2019-04-27T12:20:55.790Z,100222.91
2019-04-27T12:25:59.289Z,100224.43
2019-04-27T12:31:04.357Z,100281.72
2019-04-27T12:36:08.035Z,100283.99
2019-04-27T12:41:11.469Z,100292.00
2019-04-27T12:46:16.016Z,100290.89
2019-04-27T12:51:21.026Z,100280.38
2019-04-27T12:56:41.366Z,100296.48
2019-04-27T13:01:46.265Z,100314.52
2019-04-27T13:06:49.763Z,100306.46
2019-04-27T13:11:53.182Z,100311.05
2019-04-27T13:16:56.599Z,100307.28
2019-04-27T13:22:23.718Z,100314.36
2019-04-27T13:27:18.186Z,100319.19
2019-04-27T13:32:21.840Z,100313.69
2019-04-27T13:37:33.072Z,100315.61
2019-04-27T13:42:38.222Z,100313.77
2019-04-27T13:47:43.328Z,100312.76
2019-04-27T13:52:46.805Z,100319.77
2019-04-27T13:57:50.743Z,100326.03
2019-04-27T14:02:54.393Z,100325.28
2019-04-27T14:07:59.168Z,100324.19
2019-04-27T14:13:02.741Z,100324.73
2019-04-27T14:18:09.753Z,100315.54
2019-04-27T14:23:18.652Z,100308.66
2019-04-27T14:28:22.035Z,100303.25
2019-04-27T14:33:26.303Z,100314.02
2019-04-27T14:39:01.819Z,100308.66
2019-04-27T14:55:28.233Z,100311.59
2019-04-27T15:00:58.452Z,100309.59
2019-04-27T15:05:53.661Z,100314.95
2019-04-27T15:10:56.676Z,100312.50
2019-04-27T15:16:02.714Z,100311.48
2019-04-27T15:21:05.919Z,100311.63
2019-04-27T15:26:10.457Z,100309.01
2019-04-27T15:31:27.012Z,100312.72
2019-04-27T15:36:32.005Z,100312.12
2019-04-27T15:41:39.452Z,100292.70
2019-04-27T15:46:42.935Z,100280.38
2019-04-27T15:51:46.362Z,100281.93
2019-04-27T15:56:49.780Z,100270.76
2019-04-27T16:01:53.253Z,100279.52
2019-04-27T16:06:58.555Z,100284.31
2019-04-27T16:12:09.931Z,100305.07
2019-04-27T16:17:09.888Z,100317.11
2019-04-27T16:22:12.233Z,100318.72
2019-04-27T16:27:15.730Z,100326.48
2019-04-27T16:32:19.235Z,100330.41
2019-04-27T16:37:28.561Z,100341.05
2019-04-27T16:42:32.064Z,100366.94
2019-04-27T16:47:35.655Z,100398.97
2019-04-27T16:52:39.076Z,100404.88
2019-04-27T16:57:42.500Z,100413.20
2019-04-27T17:02:46.049Z,100430.51
2019-04-27T17:07:49.461Z,100420.06
2019-04-27T17:12:52.877Z,100419.59
2019-04-27T17:18:13.944Z,100417.59
2019-04-27T17:23:22.544Z,100409.80
2019-04-27T17:28:25.153Z,100411.93
2019-04-27T17:33:32.724Z,100420.23
2019-04-27T17:38:36.138Z,100421.20
2019-04-27T17:43:41.579Z,100426.03
2019-04-27T17:48:44.672Z,100428.50
2019-04-27T17:53:49.900Z,100436.13
2019-04-27T17:58:53.263Z,100435.95
2019-04-27T18:04:01.586Z,100437.70
2019-04-27T18:09:03.399Z,100435.72
2019-04-27T18:14:09.822Z,100432.87
2019-04-27T18:19:18.416Z,100439.97
2019-04-27T18:24:25.112Z,100434.50
2019-04-27T18:29:30.834Z,100424.64
2019-04-27T18:34:33.852Z,100429.61
2019-04-27T18:39:38.777Z,100437.98
2019-04-27T18:44:43.348Z,100440.92
2019-04-27T18:50:07.347Z,100447.91
2019-04-27T18:55:02.310Z,100452.30
2019-04-27T19:00:07.481Z,100468.34
2019-04-27T19:05:11.226Z,100479.52
2019-04-27T19:10:14.809Z,100487.00
2019-04-27T19:15:19.418Z,100488.32
2019-04-27T19:20:22.846Z,100490.44
2019-04-27T19:25:30.750Z,100505.78
2019-04-27T19:30:38.490Z,100514.13
2019-04-27T19:35:42.160Z,100525.16
2019-04-27T19:40:45.616Z,100526.84
2019-04-27T19:45:49.012Z,100530.41
2019-04-27T19:50:52.432Z,100532.58
2019-04-27T19:56:01.646Z,100537.77
2019-04-27T20:01:11.861Z,100536.03
2019-04-27T20:06:12.470Z,100555.47
2019-04-27T20:11:16.012Z,100559.63
2019-04-27T20:16:20.812Z,100558.86
2019-04-27T20:21:24.388Z,100557.97
2019-04-27T20:26:27.933Z,100561.41
2019-04-27T20:31:32.563Z,100567.92
2019-04-27T20:36:36.086Z,100568.83
2019-04-27T20:41:41.100Z,100569.69
2019-04-27T20:46:44.678Z,100566.59
2019-04-27T20:51:53.041Z,100571.83
2019-04-27T20:56:57.089Z,100568.33
2019-04-27T21:02:02.301Z,100573.42
2019-04-27T21:07:07.346Z,100580.89
2019-04-27T21:12:10.770Z,100591.44
2019-04-27T21:17:14.178Z,100588.42
2019-04-27T21:22:17.673Z,100588.94
2019-04-27T21:27:21.610Z,100598.55
2019-04-27T21:32:25.256Z,100603.79
2019-04-27T21:37:28.684Z,100594.20
2019-04-27T21:42:32.092Z,100598.55
2019-04-27T21:47:35.502Z,100605.47
2019-04-27T21:52:49.704Z,100618.90
2019-04-27T21:57:53.128Z,100631.52
2019-04-27T22:02:56.699Z,100639.72
2019-04-27T22:08:00.874Z,100653.52
2019-04-27T22:13:05.355Z,100651.34
2019-04-27T22:18:08.797Z,100648.27
2019-04-27T22:23:23.169Z,100644.75
2019-04-27T22:28:26.940Z,100654.81
2019-04-27T22:33:30.364Z,100668.66
2019-04-27T22:38:33.820Z,100668.67
2019-04-27T22:43:44.857Z,100678.19
2019-04-27T22:48:48.316Z,100668.67
2019-04-27T22:53:51.733Z,100677.77
2019-04-27T22:59:00.642Z,100673.41
2019-04-27T23:04:03.567Z,100681.59
2019-04-27T23:09:07.209Z,100684.20
2019-04-27T23:14:11.127Z,100683.40
2019-04-27T23:19:14.757Z,100685.58
2019-04-27T23:24:18.280Z,100672.98
2019-04-27T23:29:21.714Z,100683.41
2019-04-27T23:34:25.238Z,100668.63
2019-04-27T23:39:28.660Z,100671.23
2019-04-27T23:44:32.070Z,100672.11
2019-04-27T23:49:35.496Z,100668.66
2019-04-27T23:54:38.977Z,100671.27
2019-04-27T23:59:42.387Z,100671.25
